createdAt,value
2018-06-13T10:16:42.544Z,93681.66
2018-06-13T10:19:11.227Z,93671.03
2018-06-13T10:21:39.927Z,93669.36
2018-06-13T10:24:08.660Z,93667.83
2018-06-13T10:26:37.396Z,93671.80
2018-06-13T10:29:06.120Z,93664.02
2018-06-13T10:31:34.820Z,93664.16
2018-06-13T10:34:03.539Z,93661.60
2018-06-13T10:36:32.344Z,93657.69
2018-06-13T10:39:01.121Z,93654.25
2018-06-13T10:41:29.768Z,93655.52
2018-06-13T10:43:58.501Z,93648.01
2018-06-13T10:46:27.204Z,93637.91
2018-06-13T10:48:55.910Z,93630.34
2018-06-13T10:51:24.603Z,93630.99
2018-06-13T10:53:53.268Z,93627.37
2018-06-13T10:56:22.024Z,93617.50
2018-06-13T10:58:50.725Z,93612.17
2018-06-13T11:01:19.338Z,93608.97
2018-06-13T11:03:48.894Z,93605.75
2018-06-13T11:06:17.612Z,93601.23
2018-06-13T11:08:46.310Z,93608.69
2018-06-13T11:11:15.049Z,93602.14
2018-06-13T11:13:43.730Z,93618.16
2018-06-13T11:16:12.398Z,93611.83
2018-06-13T11:18:41.078Z,93608.57
2018-06-13T11:21:09.790Z,93598.89
2018-06-13T11:23:38.489Z,93596.33
2018-06-13T11:26:07.259Z,93594.00
2018-06-13T11:29:23.928Z,93591.97
2018-06-13T11:33:45.798Z,93581.28
2018-06-13T11:41:07.879Z,93598.95
2018-06-13T11:43:36.573Z,93589.41
2018-06-13T11:46:05.317Z,93582.80
2018-06-13T11:48:34.103Z,93593.16
2018-06-13T11:51:02.813Z,93598.73
2018-06-13T11:53:31.869Z,93596.09
2018-06-13T11:56:00.550Z,93599.37
2018-06-13T11:58:30.510Z,93591.59
2018-06-13T12:00:59.247Z,93594.42
2018-06-13T12:03:28.054Z,93601.70
2018-06-13T12:05:56.818Z,93608.30
2018-06-13T12:08:25.868Z,93622.28
2018-06-13T12:10:54.618Z,93629.13
2018-06-13T12:13:23.285Z,93619.77
2018-06-13T12:15:52.002Z,93607.75
2018-06-13T12:18:20.769Z,93589.95
2018-06-13T12:20:50.148Z,93583.65
2018-06-13T12:23:18.892Z,93570.21
2018-06-13T12:25:48.070Z,93562.88
2018-06-13T12:28:16.769Z,93572.22
2018-06-13T12:30:46.021Z,93557.88
2018-06-13T12:33:15.150Z,93547.42
2018-06-13T12:35:43.855Z,93518.89
2018-06-13T12:38:13.098Z,93503.78
2018-06-13T12:40:41.812Z,93479.09
2018-06-13T12:43:33.095Z,93463.44
2018-06-13T12:46:01.813Z,93450.95
2018-06-13T12:48:30.509Z,93448.30
2018-06-13T12:50:59.201Z,93446.72
2018-06-13T12:53:27.927Z,93448.80
2018-06-13T12:55:56.595Z,93460.88
2018-06-13T12:58:25.386Z,93460.67
2018-06-13T13:00:54.294Z,93472.67
2018-06-13T13:03:23.395Z,93480.02
2018-06-13T13:05:52.128Z,93504.02
2018-06-13T13:08:20.799Z,93522.20
2018-06-13T13:10:49.479Z,93533.15
2018-06-13T13:13:18.153Z,93533.79
2018-06-13T13:15:47.015Z,93541.12
2018-06-13T13:18:15.779Z,93542.07
2018-06-13T13:20:44.474Z,93545.87
2018-06-13T13:23:13.188Z,93548.66
2018-06-13T13:25:41.858Z,93553.22
2018-06-13T13:28:10.523Z,93549.64
2018-06-13T13:30:39.215Z,93550.42
2018-06-13T13:33:07.864Z,93552.33
2018-06-13T13:35:36.597Z,93559.78
2018-06-13T13:38:05.394Z,93555.78
2018-06-13T13:40:34.129Z,93558.99
2018-06-13T13:43:03.816Z,93559.03
2018-06-13T13:45:32.568Z,93561.00
2018-06-13T13:48:01.188Z,93548.13
2018-06-13T13:50:29.867Z,93527.77
2018-06-13T13:52:58.530Z,93526.37
2018-06-13T13:55:27.326Z,93533.50
2018-06-13T13:57:56.030Z,93543.77
2018-06-13T14:00:24.745Z,93564.02
2018-06-13T14:02:53.455Z,93557.77
2018-06-13T14:05:22.237Z,93552.80
2018-06-13T14:07:50.974Z,93553.73
2018-06-13T14:10:19.614Z,93545.83
2018-06-13T14:12:48.367Z,93550.35
2018-06-13T14:15:17.022Z,93553.39
2018-06-13T14:17:45.650Z,93556.97
2018-06-13T14:20:14.440Z,93557.68
2018-06-13T14:22:43.127Z,93560.51
2018-06-13T14:25:12.349Z,93572.48
2018-06-13T14:27:41.387Z,93577.19
2018-06-13T14:30:10.215Z,93585.55
2018-06-13T14:32:38.918Z,93581.38
2018-06-13T14:35:07.637Z,93571.92
2018-06-13T14:37:36.335Z,93561.95
2018-06-13T14:40:05.220Z,93549.20
2018-06-13T14:42:33.990Z,93539.93
2018-06-13T14:45:02.695Z,93532.97
2018-06-13T14:47:31.354Z,93519.81
2018-06-13T14:50:00.072Z,93516.17
2018-06-13T14:52:28.728Z,93515.21
2018-06-13T14:54:57.410Z,93521.86
2018-06-13T14:57:26.127Z,93531.93
2018-06-13T14:59:54.805Z,93541.98
2018-06-13T15:02:23.701Z,93543.80
2018-06-13T15:04:52.418Z,93544.84
2018-06-13T15:07:21.115Z,93541.98
2018-06-13T15:09:49.770Z,93553.03
2018-06-13T15:12:18.481Z,93544.59
2018-06-13T15:14:47.167Z,93543.31
2018-06-13T15:17:37.357Z,93532.33
2018-06-13T15:20:06.102Z,93526.66
2018-06-13T15:22:34.801Z,93523.09
2018-06-13T15:25:03.512Z,93523.64
2018-06-13T15:27:32.235Z,93523.08
2018-06-13T15:30:01.028Z,93525.28
2018-06-13T15:32:29.666Z,93527.45
2018-06-13T15:34:58.324Z,93522.52
2018-06-13T15:37:26.989Z,93520.89
2018-06-13T15:39:55.710Z,93525.18
2018-06-13T15:42:24.434Z,93523.50
2018-06-13T15:44:53.219Z,93522.87
2018-06-13T15:47:21.910Z,93525.77
2018-06-13T15:49:50.597Z,93530.86
2018-06-13T15:52:19.214Z,93531.58
2018-06-13T15:54:47.884Z,93535.91
2018-06-13T15:57:16.540Z,93543.74
2018-06-13T15:59:45.785Z,93532.11
2018-06-13T16:02:14.467Z,93559.25
2018-06-13T16:04:43.305Z,93564.70
2018-06-13T16:07:11.941Z,93584.29
2018-06-13T16:09:40.594Z,93586.97
2018-06-13T16:12:09.373Z,93588.36
2018-06-13T16:14:38.099Z,93592.54
2018-06-13T16:17:06.812Z,93594.23
2018-06-13T16:19:35.542Z,93617.38
2018-06-13T16:22:04.454Z,93623.38
2018-06-13T16:24:33.409Z,93662.50
2018-06-13T16:27:02.073Z,93634.63
2018-06-13T16:29:31.176Z,93632.45
2018-06-13T16:32:00.139Z,93633.86
2018-06-13T16:34:28.903Z,93640.78
2018-06-13T16:39:26.146Z,93658.87
2018-06-13T16:41:54.807Z,93632.16
2018-06-13T16:44:23.798Z,93624.45
2018-06-13T16:46:52.411Z,93636.89
2018-06-13T16:49:21.039Z,93636.89
2018-06-13T16:51:54.334Z,93628.81
2018-06-13T16:54:34.129Z,93639.02
2018-06-13T16:57:02.900Z,93628.44
2018-06-13T16:59:31.616Z,93624.42
2018-06-13T17:02:00.391Z,93621.25
2018-06-13T17:04:29.043Z,93616.89
2018-06-13T17:06:57.768Z,93595.18
2018-06-13T17:09:26.480Z,93584.17
2018-06-13T17:11:55.126Z,93599.69
2018-06-13T17:14:23.924Z,93595.94
2018-06-13T17:16:52.634Z,93617.41
2018-06-13T17:19:21.331Z,93641.91
2018-06-13T17:21:50.127Z,93646.05
2018-06-13T17:24:18.863Z,93653.66
2018-06-13T17:26:47.668Z,93659.25
2018-06-13T17:29:16.314Z,93671.37
2018-06-13T17:31:45.038Z,93677.80
2018-06-13T17:34:13.727Z,93689.91
2018-06-13T17:36:42.464Z,93705.64
2018-06-13T17:39:11.699Z,93711.55
2018-06-13T17:41:40.518Z,93721.08
2018-06-13T17:44:09.270Z,93733.19
2018-06-13T17:46:37.997Z,93729.97
2018-06-13T17:49:06.786Z,93726.92
2018-06-13T17:52:30.669Z,93720.98
2018-06-13T17:54:59.298Z,93729.91
2018-06-13T17:57:27.978Z,93738.41
2018-06-13T17:59:56.613Z,93740.50
2018-06-13T18:02:25.361Z,93760.07
2018-06-13T18:04:54.064Z,93751.18
2018-06-13T18:07:22.754Z,93749.23
2018-06-13T18:09:51.510Z,93733.53
2018-06-13T18:12:20.338Z,93724.94
2018-06-13T18:14:49.743Z,93717.41
2018-06-13T18:17:18.502Z,93717.62
2018-06-13T18:19:47.235Z,93719.54
2018-06-13T18:22:15.938Z,93721.64
2018-06-13T18:24:44.627Z,93728.74
2018-06-13T18:27:13.348Z,93734.28
2018-06-13T18:29:42.211Z,93745.31
2018-06-13T18:32:10.991Z,93752.22
2018-06-13T18:34:39.681Z,93761.40
2018-06-13T18:37:08.385Z,93760.83
2018-06-13T18:39:37.061Z,93763.25
2018-06-13T18:42:05.778Z,93757.83
2018-06-13T18:44:34.467Z,93758.72
2018-06-13T18:47:03.783Z,93754.24
2018-06-13T18:49:32.493Z,93746.36
2018-06-13T18:52:01.877Z,93738.93
2018-06-13T18:54:31.010Z,93753.97
2018-06-13T18:56:59.808Z,93763.17
2018-06-13T18:59:28.488Z,93766.24
2018-06-13T19:01:57.581Z,93756.47
2018-06-13T19:04:26.280Z,93750.06
2018-06-13T19:06:56.399Z,93768.08
2018-06-13T19:09:25.155Z,93789.16
2018-06-13T19:11:53.883Z,93787.59
2018-06-13T19:14:22.689Z,93778.47
2018-06-13T19:16:51.400Z,93779.82
2018-06-13T19:19:20.708Z,93781.63
2018-06-13T19:21:49.438Z,93771.39
2018-06-13T19:24:18.816Z,93739.53
2018-06-13T19:26:47.443Z,93707.07
2018-06-13T19:29:16.182Z,93720.09
2018-06-13T19:31:44.948Z,93707.77
2018-06-13T19:34:13.655Z,93698.45
2018-06-13T19:36:42.431Z,93719.14
2018-06-13T19:39:11.475Z,93738.33
2018-06-13T19:41:40.176Z,93765.38
2018-06-13T19:44:08.803Z,93801.12
2018-06-13T19:46:37.499Z,93812.59
2018-06-13T19:49:06.199Z,93814.35
2018-06-13T19:51:34.866Z,93820.76
2018-06-13T19:56:11.045Z,93814.83
2018-06-13T19:58:40.298Z,93813.22
2018-06-13T20:01:09.055Z,93827.63
2018-06-13T20:03:42.955Z,93840.52
2018-06-13T20:06:12.007Z,93831.61
2018-06-13T20:08:40.711Z,93843.98
2018-06-13T20:11:09.520Z,93840.57
2018-06-13T20:13:43.329Z,93846.35
2018-06-13T20:16:17.211Z,93850.64
2018-06-13T20:18:51.073Z,93837.16
2018-06-13T20:21:19.717Z,93838.03
2018-06-13T20:23:48.363Z,93846.11
2018-06-13T20:26:22.220Z,93838.47
2018-06-13T20:28:56.027Z,93843.38
2018-06-13T20:31:27.162Z,93843.53
2018-06-13T20:33:55.713Z,93843.58
2018-06-13T20:36:24.773Z,93838.82
2018-06-13T20:38:53.430Z,93840.66
2018-06-13T20:41:22.822Z,93834.88
2018-06-13T20:43:51.560Z,93826.13
2018-06-13T20:46:20.266Z,93823.13
2018-06-13T20:48:48.983Z,93823.73
2018-06-13T20:51:17.735Z,93808.82
2018-06-13T20:53:46.446Z,93800.89
2018-06-13T20:56:16.003Z,93797.75
2018-06-13T20:58:44.819Z,93792.72
2018-06-13T21:01:13.487Z,93792.59
2018-06-13T21:03:42.223Z,93797.13
2018-06-13T21:06:10.927Z,93796.89
2018-06-13T21:08:39.553Z,93793.50
2018-06-13T21:11:08.207Z,93799.66
2018-06-13T21:13:36.869Z,93794.06
2018-06-13T21:16:05.641Z,93797.14
2018-06-13T21:18:34.360Z,93797.66
2018-06-13T21:21:02.971Z,93797.03
2018-06-13T21:23:31.639Z,93800.88
2018-06-13T21:26:00.345Z,93794.84
2018-06-13T21:28:29.005Z,93792.91
2018-06-13T21:30:57.893Z,93791.45
2018-06-13T21:33:26.549Z,93795.48
2018-06-13T21:35:55.236Z,93795.58
2018-06-13T21:38:23.905Z,93800.54
2018-06-13T21:40:52.622Z,93797.37
2018-06-13T21:43:21.308Z,93802.53
2018-06-13T21:45:50.052Z,93795.91
2018-06-13T21:48:18.764Z,93792.66
2018-06-13T21:50:47.491Z,93783.47
2018-06-13T21:53:16.718Z,93784.53
2018-06-13T21:55:45.404Z,93783.50
2018-06-13T21:58:16.280Z,93775.00
2018-06-13T22:00:45.002Z,93767.91
2018-06-13T22:03:13.715Z,93759.04
2018-06-13T22:05:43.400Z,93748.86
2018-06-13T22:08:12.171Z,93737.13
2018-06-13T22:10:40.907Z,93735.41
2018-06-13T22:13:09.602Z,93726.25
2018-06-13T22:15:38.318Z,93726.78
2018-06-13T22:18:07.020Z,93720.00
2018-06-13T22:20:35.664Z,93718.03
2018-06-13T22:23:04.390Z,93715.11
2018-06-13T22:25:33.088Z,93709.25
2018-06-13T22:28:01.749Z,93708.88
2018-06-13T22:30:30.406Z,93709.17
2018-06-13T22:32:59.063Z,93710.41
2018-06-13T22:35:27.704Z,93708.30
2018-06-13T22:37:56.471Z,93712.25
2018-06-13T22:40:25.126Z,93701.48
2018-06-13T22:42:53.853Z,93695.16
2018-06-13T22:45:22.511Z,93694.11
2018-06-13T22:47:51.175Z,93687.38
2018-06-13T22:50:19.870Z,93696.13
2018-06-13T22:52:48.573Z,93700.59
2018-06-13T22:55:17.245Z,93706.22
2018-06-13T22:57:45.966Z,93708.39
2018-06-13T23:00:17.481Z,93722.98
2018-06-13T23:02:46.218Z,93722.95
2018-06-13T23:05:14.887Z,93723.73
2018-06-13T23:07:43.580Z,93725.47
2018-06-13T23:10:12.232Z,93723.70
2018-06-13T23:12:40.930Z,93726.13
2018-06-13T23:16:38.963Z,93722.27
2018-06-13T23:19:07.610Z,93717.19
2018-06-13T23:21:36.260Z,93728.11
2018-06-13T23:24:04.912Z,93731.75
2018-06-13T23:26:33.646Z,93736.23
2018-06-13T23:29:02.328Z,93737.09
2018-06-13T23:31:31.008Z,93737.34
2018-06-13T23:33:59.758Z,93739.96
2018-06-13T23:36:28.414Z,93743.87
2018-06-13T23:38:57.092Z,93750.16
2018-06-13T23:41:25.770Z,93750.48
2018-06-13T23:43:54.464Z,93751.06
2018-06-13T23:46:23.126Z,93749.42
2018-06-13T23:48:51.866Z,93748.92
2018-06-13T23:51:20.497Z,93746.95
2018-06-13T23:53:49.189Z,93750.16
2018-06-13T23:56:17.855Z,93742.80
2018-06-13T23:58:46.535Z,93728.87
